METAR Data
IDs: Format: Raw Decoded Include TAF

Data at: 0505 UTC 24 May 2022

EDDV 240450Z AUTO 21004KT 160V260 9999 FEW026 OVC040 14/11 Q1001 BECMG 24010KT

TAF EDDV 232300Z 2400/2424 16008KT 9999 BKN020
  BECMG 2400/2402 25010KT
  TEMPO 2400/2402 24020G30KT
  PROB30
  TEMPO 2401/2404 BKN012
  TEMPO 2409/2417 24015G25KT
  PROB30
  TEMPO 2409/2416 SHRA SCT020CB
  BECMG 2418/2420 23005KT